Time;durP1;ratioP1;P1;durP2;ratioP2;P2;SDS_P1;SDS_P2;PMS_P1;PMS_P2;Temp;Humidity;BMP_temperature;BMP_pressure;BME280_temperature;BME280_humidity;BME280_pressure;Samples;Min_cycle;Max_cycle;Signal;HPM_P1;HPM_P2
2023/09/19 00:00:26;;;;;;;4.43;1.95;;;15.70;99.90;;;;;;5085719;28;20052;-72
2023/09/19 00:02:59;;;;;;;5.25;1.60;;;15.70;99.90;;;;;;5085236;28;20026;-71
2023/09/19 00:05:27;;;;;;;8.98;2.17;;;15.70;99.90;;;;;;5085918;28;20020;-72
2023/09/19 00:07:58;;;;;;;7.53;1.95;;;15.70;99.90;;;;;;5085520;28;20051;-72
2023/09/19 00:10:24;;;;;;;7.80;1.65;;;15.70;99.90;;;;;;5087170;28;20020;-72
2023/09/19 00:12:59;;;;;;;8.23;1.85;;;15.70;99.90;;;;;;5091484;28;20028;-72
2023/09/19 00:15:28;;;;;;;4.78;1.65;;;15.70;99.90;;;;;;5085945;28;20033;-72
2023/09/19 00:17:57;;;;;;;7.72;1.90;;;15.70;99.90;;;;;;5085169;28;20036;-72
2023/09/19 00:20:23;;;;;;;6.18;1.75;;;15.70;99.90;;;;;;5085120;28;20071;-72
2023/09/19 00:22:54;;;;;;;4.90;1.60;;;15.70;99.90;;;;;;5096428;28;20368;-72
2023/09/19 00:25:23;;;;;;;12.40;2.53;;;15.60;99.90;;;;;;5085020;28;20029;-72
2023/09/19 00:27:51;;;;;;;6.72;1.38;;;15.70;99.90;;;;;;5084772;28;20033;-72
2023/09/19 00:30:19;;;;;;;7.13;2.13;;;15.70;99.90;;;;;;5085990;28;20033;-73
2023/09/19 00:32:49;;;;;;;6.63;1.80;;;15.60;99.90;;;;;;5097045;28;20028;-72
2023/09/19 00:35:15;;;;;;;7.50;1.63;;;15.60;99.90;;;;;;5086616;28;20040;-72
2023/09/19 00:37:41;;;;;;;16.38;2.47;;;15.60;99.90;;;;;;5084253;28;20046;-71
2023/09/19 00:40:15;;;;;;;4.22;1.75;;;15.60;99.90;;;;;;5096562;28;20020;-73
2023/09/19 00:42:48;;;;;;;7.78;1.85;;;15.60;99.90;;;;;;5084754;28;20043;-72
2023/09/19 00:45:20;;;;;;;9.43;2.10;;;15.60;99.90;;;;;;5085806;28;20051;-72
2023/09/19 00:47:50;;;;;;;10.15;2.63;;;15.50;99.90;;;;;;5083956;28;20036;-75
2023/09/19 00:50:24;;;;;;;13.13;2.45;;;15.50;99.90;;;;;;5086276;28;20037;-72
2023/09/19 00:52:58;;;;;;;9.25;1.80;;;15.50;99.90;;;;;;5099942;28;20044;-72
2023/09/19 00:55:27;;;;;;;14.13;1.80;;;15.50;99.90;;;;;;5084171;28;20039;-72
2023/09/19 00:57:56;;;;;;;7.25;1.77;;;15.50;99.90;;;;;;5100224;28;20028;-72
2023/09/19 01:00:24;;;;;;;11.80;2.67;;;15.50;99.90;;;;;;5085253;28;20081;-71
2023/09/19 01:02:50;;;;;;;9.05;1.73;;;15.50;99.90;;;;;;5084466;28;20028;-72
2023/09/19 01:05:16;;;;;;;9.85;2.08;;;15.50;99.90;;;;;;5098429;28;20028;-72
2023/09/19 01:07:42;;;;;;;8.10;1.60;;;15.50;99.90;;;;;;5083839;28;20028;-72
2023/09/19 01:10:17;;;;;;;11.32;2.00;;;15.50;99.90;;;;;;5085369;28;20029;-72
2023/09/19 01:13:11;;;;;;;5.45;1.85;;;15.60;99.90;;;;;;5094214;28;20021;-72
2023/09/19 01:15:40;;;;;;;7.10;1.80;;;15.60;99.90;;;;;;5095884;28;20040;-71
2023/09/19 01:18:32;;;;;;;11.82;2.20;;;15.60;99.90;;;;;;5082092;28;20028;-72
2023/09/19 01:21:04;;;;;;;10.95;1.98;;;15.60;99.90;;;;;;5083556;28;20013;-72
2023/09/19 01:24:24;;;;;;;9.52;2.58;;;15.60;99.90;;;;;;5093699;28;20029;-72
2023/09/19 01:27:14;;;;;;;10.13;1.98;;;15.70;99.90;;;;;;4993267;28;20033;-72
2023/09/19 01:30:07;;;;;;;7.20;1.40;;;15.70;99.90;;;;;;5094706;28;20051;-72
2023/09/19 01:32:37;;;;;;;10.88;2.45;;;15.70;99.90;;;;;;5082083;28;20043;-71
2023/09/19 01:35:06;;;;;;;8.20;1.90;;;15.70;99.90;;;;;;5083596;28;20032;-71
2023/09/19 01:37:32;;;;;;;5.78;1.90;;;15.60;99.90;;;;;;5095183;28;20021;-72
2023/09/19 01:40:19;;;;;;;9.07;1.70;;;15.60;99.90;;;;;;5084102;28;20024;-73
2023/09/19 01:42:50;;;;;;;10.45;1.58;;;15.60;99.90;;;;;;5094113;28;20017;-71
2023/09/19 01:45:59;;;;;;;12.43;2.47;;;15.60;99.90;;;;;;5094996;28;20025;-72
2023/09/19 01:48:47;;;;;;;5.18;1.73;;;15.60;99.90;;;;;;5094622;28;20037;-71
2023/09/19 01:51:18;;;;;;;7.63;2.45;;;15.60;99.90;;;;;;5081923;28;20036;-72
2023/09/19 01:53:51;;;;;;;8.65;2.63;;;15.60;99.90;;;;;;5084369;28;20047;-72
2023/09/19 01:56:25;;;;;;;13.55;1.80;;;15.60;99.90;;;;;;5095375;28;20155;-71
2023/09/19 01:58:58;;;;;;;7.90;1.80;;;15.60;99.90;;;;;;5083838;28;20051;-72
2023/09/19 02:01:26;;;;;;;12.25;1.88;;;15.70;99.90;;;;;;5083690;28;20028;-72
2023/09/19 02:03:53;;;;;;;10.88;2.08;;;15.80;99.90;;;;;;5084305;28;20027;-71
2023/09/19 02:06:21;;;;;;;9.82;2.30;;;15.80;99.90;;;;;;5094537;28;20315;-72
2023/09/19 02:08:47;;;;;;;8.75;2.58;;;15.70;99.90;;;;;;5083665;28;20088;-71
2023/09/19 02:11:13;;;;;;;9.77;2.03;;;15.70;99.90;;;;;;5100702;28;20036;-71
2023/09/19 02:13:41;;;;;;;13.80;1.88;;;15.70;99.90;;;;;;5085457;28;20092;-72
2023/09/19 02:16:07;;;;;;;8.50;2.00;;;15.70;99.90;;;;;;5086231;28;20025;-71
2023/09/19 02:18:39;;;;;;;11.85;2.08;;;15.70;99.90;;;;;;5085160;28;20048;-71
2023/09/19 02:21:06;;;;;;;11.95;2.00;;;15.70;99.90;;;;;;5086637;28;20095;-72
2023/09/19 02:23:33;;;;;;;8.52;2.00;;;15.70;99.90;;;;;;5094029;28;20588;-71
2023/09/19 02:26:01;;;;;;;9.05;1.73;;;15.70;99.90;;;;;;5085641;28;20024;-71
2023/09/19 02:28:32;;;;;;;10.80;2.17;;;15.70;99.90;;;;;;5086553;28;20059;-71
2023/09/19 02:30:58;;;;;;;7.68;2.47;;;15.60;99.90;;;;;;5090581;28;20036;-71
2023/09/19 02:33:26;;;;;;;8.80;1.83;;;15.60;99.90;;;;;;5086906;28;20021;-71
2023/09/19 02:35:58;;;;;;;9.68;2.75;;;15.60;99.90;;;;;;5085928;28;20047;-72
2023/09/19 02:38:25;;;;;;;12.80;2.40;;;15.60;99.90;;;;;;5102469;28;20020;-71
2023/09/19 02:40:55;;;;;;;13.68;2.53;;;15.60;99.90;;;;;;5098751;28;20036;-72
2023/09/19 02:43:21;;;;;;;10.13;2.58;;;15.60;99.90;;;;;;5088413;28;20024;-72
2023/09/19 02:45:49;;;;;;;7.82;1.95;;;15.50;99.90;;;;;;5091695;28;20024;-71
2023/09/19 02:48:16;;;;;;;12.88;2.05;;;15.50;99.90;;;;;;5091797;28;20036;-72
2023/09/19 02:50:42;;;;;;;11.73;2.22;;;15.50;99.90;;;;;;5097005;28;20024;-71
2023/09/19 02:53:08;;;;;;;10.13;1.80;;;15.50;99.90;;;;;;5087826;28;20048;-71
2023/09/19 02:55:34;;;;;;;7.38;1.73;;;15.40;99.90;;;;;;5088624;28;20020;-71
2023/09/19 02:58:05;;;;;;;11.52;2.83;;;15.40;99.90;;;;;;5096861;28;20052;-71
2023/09/19 03:00:33;;;;;;;9.88;1.88;;;15.40;99.90;;;;;;5086448;28;20027;-71
2023/09/19 03:03:02;;;;;;;15.68;2.30;;;15.40;99.90;;;;;;5085863;28;20017;-72
2023/09/19 03:05:30;;;;;;;12.13;2.65;;;15.40;99.90;;;;;;5092471;28;20024;-72
2023/09/19 03:08:00;;;;;;;9.68;1.98;;;15.40;99.90;;;;;;5084712;28;20033;-72
2023/09/19 03:10:25;;;;;;;11.05;2.22;;;15.30;99.90;;;;;;5102392;28;20017;-71
2023/09/19 03:12:51;;;;;;;9.05;2.85;;;15.30;99.90;;;;;;5086903;28;20028;-71
2023/09/19 03:15:20;;;;;;;9.57;2.28;;;15.30;99.90;;;;;;5085378;28;20055;-71
2023/09/19 03:17:47;;;;;;;7.45;1.98;;;15.30;99.90;;;;;;5086381;28;21306;-71
2023/09/19 03:20:17;;;;;;;16.95;2.63;;;15.30;99.90;;;;;;5086631;28;20064;-71
2023/09/19 03:22:46;;;;;;;11.13;2.15;;;15.20;99.90;;;;;;5097126;28;20060;-71
2023/09/19 03:25:12;;;;;;;13.57;2.33;;;15.20;99.90;;;;;;5086555;28;20036;-71
2023/09/19 03:27:41;;;;;;;7.93;1.83;;;15.20;99.90;;;;;;5086284;28;20108;-71
2023/09/19 03:30:08;;;;;;;10.35;2.20;;;15.20;99.90;;;;;;5085479;28;20064;-72
2023/09/19 03:32:40;;;;;;;15.18;3.08;;;15.20;99.90;;;;;;5085855;28;20066;-72
2023/09/19 03:35:13;;;;;;;13.98;2.28;;;15.10;99.90;;;;;;5084518;28;20029;-72
2023/09/19 03:37:40;;;;;;;19.80;2.60;;;15.10;99.90;;;;;;5084706;28;20024;-72
2023/09/19 03:40:10;;;;;;;14.25;2.38;;;15.10;99.90;;;;;;5086824;28;20035;-71
2023/09/19 03:42:41;;;;;;;14.82;2.15;;;15.10;99.90;;;;;;5085407;28;20050;-72
2023/09/19 03:45:16;;;;;;;8.07;2.53;;;15.10;99.90;;;;;;5085690;28;20035;-73
2023/09/19 03:47:46;;;;;;;8.38;1.92;;;15.00;99.90;;;;;;5084119;28;20107;-73
2023/09/19 03:50:17;;;;;;;10.18;2.70;;;15.00;99.90;;;;;;5083009;28;20045;-73
2023/09/19 03:52:43;;;;;;;8.65;2.67;;;15.00;99.90;;;;;;5088674;28;20035;-73
2023/09/19 03:55:09;;;;;;;10.45;2.30;;;15.00;99.90;;;;;;5083593;28;20106;-74
2023/09/19 03:57:37;;;;;;;13.00;2.83;;;15.00;99.90;;;;;;5082831;28;20028;-74
2023/09/19 04:00:14;;;;;;;4.88;2.00;;;15.00;99.90;;;;;;5085494;28;20053;-74
2023/09/19 04:02:40;;;;;;;7.93;2.13;;;15.00;99.90;;;;;;5085250;28;20028;-73
2023/09/19 04:05:06;;;;;;;9.52;2.53;;;15.00;99.90;;;;;;5084761;28;20031;-74
2023/09/19 04:07:34;;;;;;;13.30;2.70;;;15.00;99.90;;;;;;5084163;28;20092;-73
2023/09/19 04:10:03;;;;;;;10.75;2.60;;;15.00;99.90;;;;;;5084083;28;20024;-73
2023/09/19 04:12:33;;;;;;;10.35;2.40;;;15.00;99.90;;;;;;5083515;28;20017;-73
2023/09/19 04:14:58;;;;;;;14.75;2.42;;;14.90;99.90;;;;;;5082826;28;20056;-73
2023/09/19 04:17:24;;;;;;;8.80;2.22;;;14.90;99.90;;;;;;5085225;28;20020;-73
2023/09/19 04:19:53;;;;;;;7.93;2.22;;;14.90;99.90;;;;;;5083795;28;20025;-73
2023/09/19 04:22:18;;;;;;;8.73;2.15;;;14.90;99.90;;;;;;5096273;28;20017;-73
2023/09/19 04:24:45;;;;;;;7.47;1.67;;;14.90;99.90;;;;;;5084434;28;20040;-73
2023/09/19 04:27:14;;;;;;;14.00;2.20;;;14.90;99.90;;;;;;5083805;28;20027;-73
2023/09/19 04:29:41;;;;;;;12.55;2.47;;;14.90;99.90;;;;;;5083328;28;20135;-73
2023/09/19 04:32:07;;;;;;;12.57;2.38;;;14.90;99.90;;;;;;5083898;28;20034;-72
2023/09/19 04:34:35;;;;;;;15.65;2.30;;;14.90;99.90;;;;;;5083821;28;20037;-72
2023/09/19 04:37:01;;;;;;;10.48;2.42;;;14.80;99.90;;;;;;5083140;28;20143;-72
2023/09/19 04:39:29;;;;;;;11.57;2.10;;;14.80;99.90;;;;;;5083817;28;20037;-73
2023/09/19 04:42:00;;;;;;;8.95;2.60;;;14.80;99.90;;;;;;5084885;28;20054;-73
2023/09/19 04:44:25;;;;;;;13.30;2.50;;;14.80;99.90;;;;;;5099528;28;20040;-73
2023/09/19 04:46:51;;;;;;;12.45;1.90;;;14.80;99.90;;;;;;5083484;28;20032;-73
2023/09/19 04:49:19;;;;;;;11.13;2.15;;;14.80;99.90;;;;;;5084043;28;20088;-73
2023/09/19 04:51:47;;;;;;;13.02;1.92;;;14.80;99.90;;;;;;5085467;28;20028;-73
2023/09/19 04:54:15;;;;;;;16.23;2.65;;;14.80;99.90;;;;;;5083761;28;20017;-73
2023/09/19 04:56:43;;;;;;;11.60;2.22;;;14.80;99.90;;;;;;5084222;28;20039;-73
2023/09/19 04:59:11;;;;;;;9.57;2.58;;;14.80;99.90;;;;;;5082520;28;20104;-73
2023/09/19 05:01:41;;;;;;;10.00;2.20;;;14.80;99.90;;;;;;5099537;28;20020;-73
2023/09/19 05:04:07;;;;;;;11.82;2.17;;;14.70;99.90;;;;;;5082180;28;20037;-73
2023/09/19 05:06:33;;;;;;;12.20;2.53;;;14.70;99.90;;;;;;5083904;28;20044;-73
2023/09/19 05:09:00;;;;;;;16.35;2.80;;;14.70;99.90;;;;;;5098461;28;20128;-72
2023/09/19 05:11:26;;;;;;;12.85;2.60;;;14.70;99.90;;;;;;5085125;28;20025;-73
2023/09/19 05:13:52;;;;;;;11.73;2.88;;;14.70;99.90;;;;;;5083719;28;20017;-73
2023/09/19 05:16:20;;;;;;;12.23;3.22;;;14.70;99.90;;;;;;5082444;28;20088;-73
2023/09/19 05:18:46;;;;;;;13.15;2.15;;;14.60;99.90;;;;;;5083381;28;20021;-73
2023/09/19 05:21:12;;;;;;;13.48;2.58;;;14.70;99.90;;;;;;5082755;28;20117;-73
2023/09/19 05:23:40;;;;;;;16.13;3.05;;;14.70;99.90;;;;;;5083548;28;20073;-73
2023/09/19 05:26:06;;;;;;;12.10;2.53;;;14.70;99.90;;;;;;5083703;28;20084;-73
2023/09/19 05:28:34;;;;;;;11.68;2.72;;;14.70;99.90;;;;;;5085175;28;20028;-73
2023/09/19 05:31:04;;;;;;;10.82;2.10;;;14.60;99.90;;;;;;5097592;28;20024;-72
2023/09/19 05:33:32;;;;;;;9.13;1.88;;;14.70;99.90;;;;;;5082070;28;20024;-72
2023/09/19 05:36:00;;;;;;;13.77;1.83;;;14.70;99.90;;;;;;5084566;28;20020;-73
2023/09/19 05:38:27;;;;;;;10.50;2.15;;;14.70;99.90;;;;;;5081703;28;20020;-73
2023/09/19 05:40:53;;;;;;;9.05;2.60;;;14.70;99.90;;;;;;5081502;28;20042;-72
2023/09/19 05:43:19;;;;;;;12.77;2.00;;;14.70;99.90;;;;;;5094598;28;20036;-73
2023/09/19 05:45:45;;;;;;;7.20;1.73;;;14.70;99.90;;;;;;5082801;28;20689;-73
2023/09/19 05:48:15;;;;;;;20.55;3.22;;;14.70;99.90;;;;;;5086437;28;20036;-73
2023/09/19 05:50:42;;;;;;;16.10;2.65;;;14.80;99.90;;;;;;5084701;28;20046;-73
2023/09/19 05:53:14;;;;;;;12.32;2.33;;;14.80;99.90;;;;;;5084006;28;20048;-72
2023/09/19 05:55:40;;;;;;;13.48;2.88;;;14.80;99.90;;;;;;5086316;28;20055;-72
2023/09/19 05:58:13;;;;;;;14.20;2.22;;;14.90;99.90;;;;;;5087093;28;20059;-73
2023/09/19 06:00:41;;;;;;;8.25;2.10;;;14.90;99.90;;;;;;5090161;28;20131;-72
2023/09/19 06:03:12;;;;;;;9.80;2.45;;;14.90;99.90;;;;;;5088265;28;20044;-72
2023/09/19 06:05:40;;;;;;;13.15;2.30;;;14.90;99.90;;;;;;5085519;28;20032;-72
2023/09/19 06:08:07;;;;;;;16.73;2.70;;;14.90;99.90;;;;;;5087531;28;20033;-72
2023/09/19 06:10:34;;;;;;;12.70;2.15;;;14.90;99.90;;;;;;5086445;28;20029;-72
2023/09/19 06:13:00;;;;;;;13.73;2.75;;;14.90;99.90;;;;;;5098091;28;20050;-72
2023/09/19 06:15:26;;;;;;;13.73;2.33;;;14.90;99.90;;;;;;5084699;28;20081;-72
2023/09/19 06:17:56;;;;;;;10.30;2.20;;;14.90;99.90;;;;;;5088428;28;20021;-72
2023/09/19 06:20:23;;;;;;;11.73;3.33;;;14.90;99.90;;;;;;5087643;28;20032;-72
2023/09/19 06:22:49;;;;;;;13.65;3.00;;;14.90;99.90;;;;;;5089022;28;20088;-72
2023/09/19 06:25:19;;;;;;;12.23;2.60;;;14.90;99.90;;;;;;5089847;28;20132;-72
2023/09/19 06:27:48;;;;;;;9.13;2.70;;;15.00;99.90;;;;;;5091163;28;20053;-72
2023/09/19 06:30:17;;;;;;;10.57;2.80;;;15.00;99.90;;;;;;5086723;28;20033;-72
2023/09/19 06:32:45;;;;;;;11.20;2.60;;;15.00;99.90;;;;;;5085794;28;20047;-72
2023/09/19 06:35:15;;;;;;;9.98;2.42;;;15.00;99.90;;;;;;5087627;28;20024;-72
2023/09/19 06:37:44;;;;;;;14.88;2.38;;;15.00;99.90;;;;;;5085757;28;20084;-72
2023/09/19 06:40:14;;;;;;;12.68;2.15;;;15.00;99.90;;;;;;5086641;28;20021;-72
2023/09/19 06:42:44;;;;;;;11.55;2.60;;;15.00;99.90;;;;;;5087751;28;20021;-72
2023/09/19 06:45:13;;;;;;;13.45;2.40;;;15.10;99.90;;;;;;5097524;28;20020;-72
2023/09/19 06:47:39;;;;;;;11.73;2.00;;;15.10;99.90;;;;;;5086709;28;20052;-72
2023/09/19 06:50:06;;;;;;;8.93;1.75;;;15.10;99.90;;;;;;5088382;28;20104;-72
2023/09/19 06:52:32;;;;;;;17.13;3.22;;;15.10;99.90;;;;;;5101867;28;20028;-71
2023/09/19 06:54:58;;;;;;;12.80;2.40;;;15.20;99.90;;;;;;5086319;28;20041;-72
2023/09/19 06:57:24;;;;;;;7.47;1.90;;;15.20;99.90;;;;;;5087123;28;20031;-72
2023/09/19 06:59:54;;;;;;;12.85;3.20;;;15.20;99.90;;;;;;5087231;28;20093;-72
2023/09/19 07:02:21;;;;;;;12.27;2.55;;;15.30;99.90;;;;;;5085987;28;20041;-72
2023/09/19 07:04:47;;;;;;;15.30;2.90;;;15.30;99.90;;;;;;5104177;28;20025;-72
2023/09/19 07:07:18;;;;;;;18.75;3.05;;;15.30;99.90;;;;;;5086986;28;20070;-72
2023/09/19 07:09:48;;;;;;;13.82;3.50;;;15.30;99.90;;;;;;5086730;28;20029;-72
2023/09/19 07:12:14;;;;;;;13.23;2.83;;;15.40;99.90;;;;;;5087392;28;20035;-72
2023/09/19 07:14:42;;;;;;;14.10;3.03;;;15.40;99.90;;;;;;5086936;28;20028;-72
2023/09/19 07:17:18;;;;;;;16.10;2.75;;;15.40;99.90;;;;;;5088127;28;20070;-72
2023/09/19 07:19:48;;;;;;;13.60;2.55;;;15.50;99.90;;;;;;5087036;28;20024;-74
2023/09/19 07:22:16;;;;;;;12.02;2.70;;;15.50;99.90;;;;;;5085353;28;20104;-72
2023/09/19 07:24:42;;;;;;;11.63;2.85;;;15.50;99.90;;;;;;5088843;28;20051;-73
2023/09/19 07:27:10;;;;;;;9.80;1.73;;;15.60;99.90;;;;;;5088682;28;20037;-73
2023/09/19 07:29:36;;;;;;;14.48;2.75;;;15.60;99.90;;;;;;5087350;28;20040;-73
2023/09/19 07:32:01;;;;;;;14.85;3.10;;;15.60;99.90;;;;;;5087786;28;20012;-72
2023/09/19 07:34:29;;;;;;;12.18;2.70;;;15.60;99.90;;;;;;5088833;28;20046;-73
2023/09/19 07:36:54;;;;;;;15.52;2.83;;;15.70;99.90;;;;;;5088073;28;20016;-72
2023/09/19 07:39:20;;;;;;;11.05;1.85;;;15.70;99.90;;;;;;5098024;28;20038;-72
2023/09/19 07:41:46;;;;;;;11.40;2.60;;;15.70;99.90;;;;;;5086433;28;20021;-73
2023/09/19 07:44:11;;;;;;;13.95;2.53;;;15.70;99.90;;;;;;5088464;28;20030;-73
2023/09/19 07:46:38;;;;;;;13.35;2.67;;;15.80;99.90;;;;;;5089572;28;20043;-72
2023/09/19 07:49:06;;;;;;;9.70;2.65;;;15.80;99.90;;;;;;5103296;28;20052;-72
2023/09/19 07:51:33;;;;;;;12.90;2.28;;;15.90;99.90;;;;;;5089517;28;20032;-72
2023/09/19 07:54:01;;;;;;;17.35;3.10;;;16.00;99.90;;;;;;5089256;28;20028;-72
2023/09/19 07:56:27;;;;;;;12.20;2.92;;;16.10;99.90;;;;;;5088370;28;20021;-73
2023/09/19 07:58:57;;;;;;;13.63;2.38;;;16.10;99.90;;;;;;5085787;28;20033;-76
2023/09/19 08:01:27;;;;;;;13.15;2.60;;;16.20;99.90;;;;;;5085178;28;20029;-73
2023/09/19 08:03:54;;;;;;;10.23;2.40;;;16.20;99.90;;;;;;5085870;28;20024;-73
2023/09/19 08:06:20;;;;;;;18.35;3.70;;;16.30;99.90;;;;;;5085721;28;20023;-73
2023/09/19 08:08:50;;;;;;;13.02;2.67;;;16.30;99.90;;;;;;5083428;28;20052;-76
2023/09/19 08:11:21;;;;;;;13.05;2.83;;;16.40;99.90;;;;;;5101699;28;20020;-73
2023/09/19 08:13:48;;;;;;;10.05;2.28;;;16.40;99.90;;;;;;5086493;28;20029;-73
2023/09/19 08:16:15;;;;;;;16.42;2.90;;;16.40;99.90;;;;;;5086907;28;20042;-73
2023/09/19 08:18:41;;;;;;;11.75;2.75;;;16.50;99.90;;;;;;5085361;28;20028;-73
2023/09/19 08:21:10;;;;;;;12.48;2.35;;;16.50;99.90;;;;;;5087592;28;20131;-73
2023/09/19 08:23:38;;;;;;;9.93;2.55;;;16.60;99.90;;;;;;5088857;28;20033;-73
2023/09/19 08:26:07;;;;;;;13.35;2.45;;;16.60;99.90;;;;;;5084275;28;20054;-73
2023/09/19 08:28:40;;;;;;;14.82;2.00;;;16.60;99.90;;;;;;5086817;28;20103;-73
2023/09/19 08:31:13;;;;;;;10.15;2.47;;;16.70;99.90;;;;;;5094520;28;20051;-73
2023/09/19 08:33:45;;;;;;;12.13;2.47;;;16.70;99.90;;;;;;5086329;28;20192;-73
2023/09/19 08:36:14;;;;;;;9.40;2.40;;;16.80;99.90;;;;;;5090623;28;20054;-73
2023/09/19 08:38:41;;;;;;;8.57;2.13;;;16.80;99.90;;;;;;5089854;28;20040;-72
2023/09/19 08:41:08;;;;;;;10.52;2.22;;;16.90;99.90;;;;;;5096464;28;20066;-72
2023/09/19 08:43:35;;;;;;;6.97;2.05;;;17.00;99.90;;;;;;5085422;28;20078;-73
2023/09/19 08:46:06;;;;;;;8.90;1.50;;;17.00;99.90;;;;;;5103734;28;20021;-73
2023/09/19 08:48:32;;;;;;;9.77;1.97;;;17.10;99.90;;;;;;5086829;28;20028;-73
2023/09/19 08:51:16;;;;;;;7.45;1.98;;;17.10;99.90;;;;;;5102890;28;20264;-73
2023/09/19 08:53:49;;;;;;;9.55;2.10;;;17.20;99.90;;;;;;5094565;28;20024;-73
2023/09/19 08:56:17;;;;;;;13.82;1.85;;;17.20;99.90;;;;;;5084632;28;20055;-73
2023/09/19 08:59:01;;;;;;;10.98;2.40;;;17.20;99.90;;;;;;5082216;28;20044;-73
2023/09/19 09:01:32;;;;;;;13.02;2.80;;;17.20;99.90;;;;;;5086184;28;20028;-73
2023/09/19 09:04:01;;;;;;;10.30;2.05;;;17.20;99.90;;;;;;5093676;28;20020;-73
2023/09/19 09:06:32;;;;;;;10.15;1.98;;;17.20;99.90;;;;;;5090600;28;20025;-73
2023/09/19 09:09:00;;;;;;;9.45;1.75;;;17.20;99.90;;;;;;5082717;28;20092;-73
2023/09/19 09:11:28;;;;;;;9.57;2.58;;;17.30;99.90;;;;;;5083085;28;20047;-73
2023/09/19 09:13:54;;;;;;;11.20;2.05;;;17.30;99.90;;;;;;5100147;28;20030;-73
2023/09/19 09:16:25;;;;;;;14.63;2.80;;;17.40;99.90;;;;;;5081304;28;20016;-73
2023/09/19 09:18:54;;;;;;;12.88;3.05;;;17.50;99.90;;;;;;5084080;28;20024;-73
2023/09/19 09:21:26;;;;;;;7.53;1.67;;;17.50;99.90;;;;;;5084819;28;20036;-73
2023/09/19 09:23:54;;;;;;;7.07;1.50;;;17.60;99.90;;;;;;5082167;28;20024;-74
2023/09/19 09:26:39;;;;;;;12.45;2.30;;;17.60;99.90;;;;;;5080820;28;20024;-73
2023/09/19 09:29:04;;;;;;;7.53;1.67;;;17.60;99.90;;;;;;5085074;28;20035;-73
2023/09/19 09:31:32;;;;;;;9.27;2.03;;;17.70;99.90;;;;;;5094873;28;20096;-73
2023/09/19 09:34:01;;;;;;;7.90;1.50;;;17.70;99.90;;;;;;5081810;28;20035;-74
2023/09/19 09:36:41;;;;;;;7.88;2.28;;;17.70;99.90;;;;;;5084296;28;20016;-73
2023/09/19 09:39:24;;;;;;;6.93;2.50;;;17.80;99.90;;;;;;5087575;28;20017;-73
2023/09/19 09:41:50;;;;;;;7.25;2.03;;;17.80;99.90;;;;;;5081149;28;21097;-85
2023/09/19 09:44:17;;;;;;;7.47;1.90;;;17.90;99.90;;;;;;5074324;28;20069;-76
2023/09/19 09:49:33;;;;;;;7.50;1.80;;;18.10;99.90;;;;;;5070141;28;20036;-81
2023/09/19 09:52:00;;;;;;;8.82;1.80;;;18.10;99.90;;;;;;5084437;28;20028;-73
2023/09/19 09:54:39;;;;;;;7.88;1.50;;;18.10;99.90;;;;;;5088901;28;20029;-73
2023/09/19 09:57:23;;;;;;;4.85;1.23;;;18.10;99.90;;;;;;5086219;28;20017;-73
2023/09/19 10:00:15;;;;;;;8.45;1.75;;;18.10;99.90;;;;;;5088874;28;20036;-73
2023/09/19 10:02:41;;;;;;;9.68;2.08;;;18.10;99.90;;;;;;5084483;28;20073;-75
2023/09/19 10:07:51;;;;;;;8.38;1.35;;;18.20;99.90;;;;;;5083018;28;20128;-82
2023/09/19 10:13:12;;;;;;;4.10;1.50;;;18.40;99.90;;;;;;5088858;28;20036;-73
2023/09/19 10:15:40;;;;;;;10.70;2.22;;;18.40;99.90;;;;;;5070689;28;20056;-82
2023/09/19 10:18:10;;;;;;;7.70;1.33;;;18.40;99.90;;;;;;5059938;28;21651;-86
2023/09/19 10:20:38;;;;;;;6.00;1.40;;;18.60;99.90;;;;;;5064576;28;20056;-84
2023/09/19 10:23:13;;;;;;;8.52;2.13;;;18.60;99.90;;;;;;5063148;28;20055;-81
2023/09/19 10:25:43;;;;;;;9.18;2.25;;;18.60;99.90;;;;;;5084775;28;20032;-74
2023/09/19 10:28:11;;;;;;;9.20;1.70;;;18.50;99.90;;;;;;5082199;28;20051;-74
2023/09/19 10:30:44;;;;;;;6.50;1.40;;;18.60;99.90;;;;;;5059036;28;20056;-78
2023/09/19 10:33:10;;;;;;;5.22;2.25;;;18.60;99.90;;;;;;5060143;28;20429;-86
2023/09/19 10:35:42;;;;;;;5.75;1.23;;;18.70;99.90;;;;;;5076738;28;20029;-73
2023/09/19 10:38:12;;;;;;;10.27;1.73;;;18.60;99.90;;;;;;5087877;28;20036;-76
2023/09/19 10:40:45;;;;;;;9.63;1.98;;;18.70;99.90;;;;;;5094459;28;20028;-73
2023/09/19 10:43:25;;;;;;;6.72;1.80;;;18.80;99.90;;;;;;5078125;28;20041;-74
2023/09/19 10:45:53;;;;;;;6.43;1.77;;;18.90;99.90;;;;;;5090218;28;20052;-75
2023/09/19 10:48:25;;;;;;;7.57;1.40;;;18.90;99.90;;;;;;5077826;28;20039;-86
2023/09/19 10:50:55;;;;;;;6.25;1.60;;;18.90;99.90;;;;;;5061504;28;20021;-83
2023/09/19 10:53:25;;;;;;;6.97;2.00;;;19.00;99.90;;;;;;5073824;28;20044;-81
2023/09/19 10:55:57;;;;;;;7.93;1.75;;;19.00;99.90;;;;;;5062966;28;20029;-85
2023/09/19 10:58:28;;;;;;;7.63;2.05;;;19.00;99.90;;;;;;5061886;28;20034;-89
2023/09/19 11:01:12;;;;;;;8.80;1.73;;;19.10;99.90;;;;;;5060296;28;20051;-86
2023/09/19 11:03:43;;;;;;;5.10;1.38;;;19.20;99.90;;;;;;5060908;28;20697;-86
2023/09/19 11:06:22;;;;;;;5.85;1.58;;;19.40;99.90;;;;;;5063270;28;20131;-83
2023/09/19 11:11:55;;;;;;;8.48;1.75;;;19.40;99.90;;;;;;5060712;28;20609;-88
2023/09/19 11:14:24;;;;;;;5.38;1.55;;;19.50;99.90;;;;;;5060553;28;20052;-87
2023/09/19 11:17:11;;;;;;;7.90;2.25;;;19.50;99.90;;;;;;5061703;28;20557;-90
2023/09/19 11:22:56;;;;;;;5.05;1.40;;;19.50;99.90;;;;;;5062040;28;20064;-85
2023/09/19 11:28:05;;;;;;;6.03;1.50;;;19.50;99.90;;;;;;5061144;28;20068;-89
2023/09/19 11:30:35;;;;;;;5.80;1.20;;;19.50;99.90;;;;;;5071798;28;20119;-84
2023/09/19 11:33:41;;;;;;;11.52;2.25;;;19.40;99.90;;;;;;5061858;28;20039;-85
2023/09/19 11:36:15;;;;;;;5.50;1.42;;;19.30;99.90;;;;;;5059657;28;20073;-81
2023/09/19 11:38:47;;;;;;;6.95;1.85;;;19.30;99.90;;;;;;5061098;28;20507;-82
2023/09/19 11:41:22;;;;;;;13.20;2.55;;;19.30;99.90;;;;;;5057913;28;20039;-85
2023/09/19 11:44:00;;;;;;;9.40;2.67;;;19.40;99.90;;;;;;5059982;28;20031;-80
2023/09/19 11:46:27;;;;;;;12.00;2.78;;;19.40;99.90;;;;;;5073964;28;20040;-85
2023/09/19 11:48:53;;;;;;;8.70;1.70;;;19.40;99.90;;;;;;5064219;28;20032;-84
2023/09/19 11:51:27;;;;;;;7.82;1.90;;;19.40;99.90;;;;;;5062802;28;20106;-89
2023/09/19 11:53:59;;;;;;;5.07;1.40;;;19.40;99.90;;;;;;5060119;28;20131;-88
2023/09/19 11:56:28;;;;;;;9.82;1.90;;;19.40;99.90;;;;;;5075761;28;20028;-84
2023/09/19 11:58:55;;;;;;;6.05;1.90;;;19.40;99.90;;;;;;5073516;28;20055;-82
2023/09/19 12:01:33;;;;;;;4.25;1.25;;;19.40;99.90;;;;;;5063062;28;20040;-88
2023/09/19 12:04:00;;;;;;;5.03;1.50;;;19.40;99.90;;;;;;5065207;28;20040;-90
2023/09/19 12:06:27;;;;;;;4.85;1.25;;;19.50;99.90;;;;;;5073017;28;20047;-85
2023/09/19 12:08:58;;;;;;;7.82;1.70;;;19.50;99.90;;;;;;5072597;28;20028;-87
2023/09/19 12:11:33;;;;;;;8.05;1.70;;;19.60;99.90;;;;;;5062659;28;20036;-83
2023/09/19 12:14:02;;;;;;;10.65;2.47;;;19.70;99.90;;;;;;5058502;28;20029;-90
2023/09/19 12:16:30;;;;;;;7.20;1.67;;;19.70;99.90;;;;;;5061997;28;20035;-82
2023/09/19 12:18:57;;;;;;;4.97;1.75;;;19.70;99.90;;;;;;5062192;28;20024;-92
2023/09/19 12:21:31;;;;;;;4.65;1.35;;;19.80;99.90;;;;;;5059212;28;20378;-85
2023/09/19 12:24:05;;;;;;;4.85;1.88;;;19.80;99.90;;;;;;5059194;28;20033;-86
2023/09/19 12:27:01;;;;;;;5.15;1.73;;;19.80;99.90;;;;;;5074803;28;20455;-86
2023/09/19 12:29:36;;;;;;;7.40;1.73;;;19.90;99.90;;;;;;5057022;28;20153;-93
2023/09/19 12:32:03;;;;;;;6.88;1.67;;;19.90;99.90;;;;;;5067669;28;20128;-88
2023/09/19 12:34:34;;;;;;;8.88;2.10;;;19.90;99.90;;;;;;5058288;28;20016;-92
2023/09/19 12:37:15;;;;;;;7.30;1.58;;;19.90;99.90;;;;;;5059968;28;20036;-87
2023/09/19 12:39:42;;;;;;;6.38;1.92;;;20.00;99.90;;;;;;5070691;28;20047;-89
2023/09/19 12:42:16;;;;;;;5.43;1.77;;;20.10;99.90;;;;;;5061106;28;20028;-88
2023/09/19 12:44:47;;;;;;;8.95;1.92;;;20.20;99.90;;;;;;5057493;28;20037;-89
2023/09/19 12:47:19;;;;;;;4.00;1.27;;;20.10;99.90;;;;;;5061154;28;20086;-93
2023/09/19 12:50:18;;;;;;;7.15;1.88;;;20.20;99.90;;;;;;5060445;28;20110;-84
2023/09/19 12:52:50;;;;;;;5.70;1.50;;;20.30;99.90;;;;;;5017706;28;20044;-86
2023/09/19 12:55:26;;;;;;;6.15;1.65;;;20.50;99.90;;;;;;5058755;28;21698;-90
2023/09/19 12:58:05;;;;;;;4.43;1.38;;;20.60;99.90;;;;;;5058473;28;20044;-89
2023/09/19 13:00:42;;;;;;;5.63;1.73;;;20.70;99.90;;;;;;5070542;28;20040;-91
2023/09/19 13:03:30;;;;;;;4.25;1.17;;;20.80;99.90;;;;;;5065842;28;20460;-84
2023/09/19 13:06:02;;;;;;;3.30;0.82;;;20.80;99.90;;;;;;5059550;28;20039;-82
2023/09/19 13:08:38;;;;;;;8.73;2.17;;;21.00;99.90;;;;;;5060105;28;20031;-90
2023/09/19 13:11:09;;;;;;;6.30;1.45;;;21.40;98.50;;;;;;5076528;28;20036;-89
2023/09/19 13:13:53;;;;;;;4.28;1.63;;;22.10;98.10;;;;;;5070939;28;20024;-81
2023/09/19 13:16:25;;;;;;;4.80;1.13;;;22.50;95.80;;;;;;5059826;28;20033;-89